Time;durP1;ratioP1;P1;durP2;ratioP2;P2;SDS_P1;SDS_P2;PMS_P1;PMS_P2;Temp;Humidity;BMP_temperature;BMP_pressure;BME280_temperature;BME280_humidity;BME280_pressure;Samples;Min_cycle;Max_cycle;Signal;HPM_P1;HPM_P2
2021/07/26 00:02:37;;;;;;;6.70;4.60;;;;;;;20.00;100.00;99861.84;5002222;28;20045;-68
2021/07/26 00:05:21;;;;;;;9.35;4.70;;;;;;;19.98;100.00;99853.06;5002218;28;20095;-68
2021/07/26 00:08:05;;;;;;;4.70;4.20;;;;;;;19.92;100.00;99856.66;5002110;28;20088;-68
2021/07/26 00:11:06;;;;;;;7.30;4.70;;;;;;;19.97;100.00;99859.53;5015960;28;20050;-68
2021/07/26 00:13:53;;;;;;;6.40;4.28;;;;;;;19.96;100.00;99863.28;5016095;28;20140;-67
2021/07/26 00:16:38;;;;;;;5.88;4.22;;;;;;;19.96;100.00;99869.53;5002198;28;20076;-68
2021/07/26 00:19:24;;;;;;;6.63;4.47;;;;;;;19.93;100.00;99864.56;5001522;28;20099;-68
2021/07/26 00:22:09;;;;;;;7.03;4.00;;;;;;;19.92;100.00;99862.06;5002550;28;20048;-68
2021/07/26 00:24:53;;;;;;;4.50;3.97;;;;;;;19.94;100.00;99863.53;5001844;28;20074;-67
2021/07/26 00:27:36;;;;;;;5.43;4.20;;;;;;;19.95;100.00;99869.75;5001700;28;20069;-68
2021/07/26 00:30:20;;;;;;;5.82;4.57;;;;;;;19.94;100.00;99860.81;5001977;28;20048;-68
2021/07/26 00:36:49;;;;;;;5.28;4.18;;;;;;;19.82;100.00;99867.09;4999219;28;20514;-68
2021/07/26 00:39:35;;;;;;;5.82;4.25;;;;;;;19.80;100.00;99864.59;5015153;28;20561;-68
2021/07/26 00:42:19;;;;;;;6.03;4.38;;;;;;;19.78;100.00;99872.09;5015071;28;20458;-67
2021/07/26 00:45:05;;;;;;;4.38;3.95;;;;;;;19.76;100.00;99865.22;5001268;28;20443;-68
2021/07/26 00:47:50;;;;;;;5.32;4.10;;;;;;;19.73;100.00;99868.38;5001618;28;20139;-68
2021/07/26 00:50:33;;;;;;;6.18;4.15;;;;;;;19.68;100.00;99869.00;5001101;28;20153;-65
2021/07/26 00:53:18;;;;;;;6.28;4.07;;;;;;;19.66;100.00;99862.97;5001214;28;20479;-68
2021/07/26 00:56:01;;;;;;;5.10;4.60;;;;;;;19.59;100.00;99877.56;5001010;28;20069;-67
2021/07/26 00:58:45;;;;;;;4.80;4.25;;;;;;;19.55;100.00;99882.56;5001249;28;20104;-68
2021/07/26 01:01:29;;;;;;;5.18;4.22;;;;;;;19.52;100.00;99891.09;5000876;28;20514;-68
2021/07/26 01:04:13;;;;;;;5.25;4.68;;;;;;;19.49;100.00;99886.09;5001073;28;20509;-67
2021/07/26 01:06:57;;;;;;;5.40;4.70;;;;;;;19.49;100.00;99894.19;5000810;28;20061;-68
2021/07/26 01:09:41;;;;;;;5.53;4.55;;;;;;;19.51;100.00;99883.19;5001012;28;20091;-67
2021/07/26 01:12:25;;;;;;;;;;;;;;;19.45;100.00;99882.16;5001146;28;20052;-68
2021/07/26 01:15:10;;;;;;;6.85;4.43;;;;;;;19.43;100.00;99878.84;5000551;28;19975;-67
2021/07/26 01:18:23;;;;;;;5.10;3.80;;;;;;;19.40;100.00;99883.81;5014339;28;20056;-67
2021/07/26 01:21:11;;;;;;;4.82;4.10;;;;;;;19.38;100.00;99885.91;5014369;28;20072;-68
2021/07/26 01:23:57;;;;;;;6.18;4.10;;;;;;;19.35;100.00;99891.72;5000435;28;20052;-67
2021/07/26 01:26:41;;;;;;;5.85;4.30;;;;;;;19.34;100.00;99895.47;5014503;28;20048;-68
2021/07/26 01:29:26;;;;;;;5.40;4.25;;;;;;;19.34;100.00;99890.06;5000296;28;20056;-67
2021/07/26 01:32:10;;;;;;;5.00;4.50;;;;;;;19.31;100.00;99895.91;5000640;28;20438;-68
2021/07/26 01:34:55;;;;;;;8.98;5.45;;;;;;;19.32;100.00;99902.97;5000520;28;20114;-68
2021/07/26 01:37:39;;;;;;;8.10;4.45;;;;;;;19.35;100.00;99897.13;5000294;28;20057;-66
2021/07/26 01:40:23;;;;;;;7.35;5.00;;;;;;;19.39;100.00;99901.09;5000514;28;20072;-68
2021/07/26 01:43:09;;;;;;;8.32;4.43;;;;;;;19.35;100.00;99897.97;5000360;28;20107;-68
2021/07/26 01:46:02;;;;;;;7.60;4.57;;;;;;;19.30;100.00;99899.63;5014066;28;20384;-68
2021/07/26 01:48:54;;;;;;;9.27;5.30;;;;;;;19.29;100.00;99897.97;5014059;28;20049;-68
2021/07/26 01:51:40;;;;;;;6.32;4.90;;;;;;;19.33;100.00;99893.81;5013775;28;20092;-67
2021/07/26 01:54:28;;;;;;;5.75;4.60;;;;;;;19.35;100.00;99894.41;5014107;28;20045;-67
2021/07/26 01:57:12;;;;;;;5.82;4.50;;;;;;;19.40;100.00;99890.03;5013638;28;20052;-68
2021/07/26 01:59:56;;;;;;;5.40;4.53;;;;;;;19.48;100.00;99887.13;5013941;28;20056;-67
2021/07/26 02:02:40;;;;;;;5.70;4.63;;;;;;;19.46;100.00;99889.22;5000280;28;20052;-68
2021/07/26 02:05:24;;;;;;;7.22;5.18;;;;;;;19.51;100.00;99888.59;5000255;28;20044;-67
2021/07/26 02:08:08;;;;;;;6.90;4.68;;;;;;;19.51;100.00;99891.28;4999372;28;20558;-68
2021/07/26 02:10:52;;;;;;;5.90;4.93;;;;;;;19.50;100.00;99895.03;5000065;28;20133;-68
2021/07/26 02:13:36;;;;;;;6.60;4.40;;;;;;;19.50;100.00;99895.84;4999744;28;20075;-67
2021/07/26 02:16:21;;;;;;;5.43;4.70;;;;;;;19.53;100.00;99894.63;5013837;28;20096;-68
2021/07/26 02:19:06;;;;;;;6.07;4.57;;;;;;;19.52;100.00;99903.78;4999439;28;20415;-68
2021/07/26 02:21:51;;;;;;;6.03;4.93;;;;;;;19.53;100.00;99902.72;4999325;28;20056;-67
2021/07/26 02:24:35;;;;;;;8.15;5.43;;;;;;;19.51;100.00;99896.72;4999784;28;20076;-68
2021/07/26 02:27:18;;;;;;;7.57;4.47;;;;;;;19.50;100.00;99900.44;4999795;28;20048;-68
2021/07/26 02:30:03;;;;;;;6.53;4.68;;;;;;;19.46;100.00;99900.03;4999450;28;20104;-67
2021/07/26 02:32:47;;;;;;;7.47;4.70;;;;;;;19.45;100.00;99902.94;5013323;28;20052;-67
2021/07/26 02:35:31;;;;;;;6.97;4.90;;;;;;;19.48;100.00;99908.75;4999334;28;20052;-68
2021/07/26 02:38:15;;;;;;;6.20;4.45;;;;;;;19.48;100.00;99916.06;4999388;28;20123;-67
2021/07/26 02:41:09;;;;;;;7.53;4.97;;;;;;;19.42;100.00;99916.88;4999320;28;20568;-67
2021/07/26 02:43:52;;;;;;;5.47;4.75;;;;;;;19.39;100.00;99920.00;5013163;28;20040;-67
2021/07/26 02:46:37;;;;;;;7.32;5.00;;;;;;;19.33;100.00;99920.84;4999252;28;20135;-68
2021/07/26 02:49:21;;;;;;;7.13;5.32;;;;;;;19.30;100.00;99921.25;4999072;28;20052;-68
2021/07/26 02:52:05;;;;;;;7.38;5.15;;;;;;;19.26;100.00;99920.84;4998854;28;20099;-68
2021/07/26 02:54:49;;;;;;;6.88;4.72;;;;;;;19.25;100.00;99918.34;4999115;28;20052;-68
2021/07/26 02:57:33;;;;;;;5.22;4.70;;;;;;;19.22;100.00;99925.00;4998769;28;20052;-68
2021/07/26 03:00:17;;;;;;;9.10;5.35;;;;;;;19.19;100.00;99916.47;4999254;28;20057;-68
2021/07/26 03:03:02;;;;;;;10.32;5.20;;;;;;;19.15;100.00;99924.13;4998819;28;20081;-67
2021/07/26 03:05:46;;;;;;;6.28;4.85;;;;;;;19.16;100.00;99924.94;5012540;28;20522;-68
2021/07/26 03:08:31;;;;;;;6.85;5.05;;;;;;;19.16;100.00;99922.25;4998580;28;20049;-68
2021/07/26 03:11:15;;;;;;;8.77;5.15;;;;;;;19.12;100.00;99929.97;4998770;28;20053;-68
2021/07/26 03:13:59;;;;;;;7.20;5.20;;;;;;;19.08;100.00;99925.19;4998821;28;20052;-66
2021/07/26 03:16:43;;;;;;;8.38;5.13;;;;;;;19.00;100.00;99930.78;4998590;28;20076;-68
2021/07/26 03:19:27;;;;;;;5.95;5.03;;;;;;;18.99;100.00;99929.09;4998332;28;20112;-68
2021/07/26 03:22:48;;;;;;;7.43;5.22;;;;;;;18.97;100.00;99931.19;4998902;28;20056;-68
2021/07/26 03:25:33;;;;;;;5.95;5.07;;;;;;;18.90;100.00;99941.97;5012597;28;20052;-68
2021/07/26 03:28:17;;;;;;;7.63;4.97;;;;;;;18.93;100.00;99938.03;4998309;28;20518;-68
2021/07/26 03:31:01;;;;;;;6.43;4.80;;;;;;;18.91;100.00;99937.41;4998959;28;20403;-68
2021/07/26 03:33:45;;;;;;;10.13;5.18;;;;;;;18.89;100.00;99931.38;5012194;28;20053;-67
2021/07/26 03:36:29;;;;;;;6.22;5.10;;;;;;;18.89;100.00;99934.91;4998393;28;20529;-68
2021/07/26 03:39:13;;;;;;;6.60;5.47;;;;;;;18.87;100.00;99936.97;4998631;28;20094;-67
2021/07/26 03:41:57;;;;;;;8.80;5.55;;;;;;;18.84;100.00;99941.94;4998336;28;20176;-68
2021/07/26 03:44:42;;;;;;;7.13;5.68;;;;;;;18.83;100.00;99937.59;5012696;28;20057;-68
2021/07/26 03:47:25;;;;;;;9.40;5.72;;;;;;;18.86;100.00;99934.50;4998476;28;20052;-67
2021/07/26 03:50:11;;;;;;;8.70;5.80;;;;;;;18.88;100.00;99940.53;4998511;28;20514;-68
2021/07/26 03:52:57;;;;;;;7.78;5.70;;;;;;;18.88;100.00;99937.81;5012109;28;20165;-68
2021/07/26 03:55:40;;;;;;;7.47;5.78;;;;;;;18.86;100.00;99939.91;5012002;28;20100;-68
2021/07/26 03:58:24;;;;;;;6.43;5.65;;;;;;;18.84;100.00;99941.94;4998418;28;20132;-68
2021/07/26 04:01:08;;;;;;;7.65;6.40;;;;;;;18.86;100.00;99934.50;4998120;28;20423;-68
2021/07/26 04:03:52;;;;;;;9.70;5.57;;;;;;;18.82;100.00;99944.03;4998398;28;20479;-67
2021/07/26 04:06:39;;;;;;;7.15;5.60;;;;;;;18.80;100.00;99941.53;4998638;28;20057;-68
2021/07/26 04:09:25;;;;;;;9.13;5.97;;;;;;;18.76;100.00;99945.69;4998002;28;20057;-67
2021/07/26 04:12:13;;;;;;;7.97;5.90;;;;;;;18.73;100.00;99945.25;4998928;28;20061;-68
2021/07/26 04:14:57;;;;;;;11.27;5.35;;;;;;;18.72;100.00;99938.19;5012165;28;20100;-67
2021/07/26 04:17:41;;;;;;;10.63;6.10;;;;;;;18.70;100.00;99935.72;4997772;28;20103;-67
2021/07/26 04:20:25;;;;;;;10.30;6.63;;;;;;;18.71;100.00;99948.19;5020602;23;20103;-66
2021/07/26 04:23:12;;;;;;;7.18;5.95;;;;;;;18.69;100.00;99938.59;4998045;28;20104;-66
2021/07/26 04:25:56;;;;;;;7.13;6.10;;;;;;;18.65;100.00;99942.72;4998668;28;20126;-67
2021/07/26 04:28:40;;;;;;;10.82;5.90;;;;;;;18.60;100.00;99940.66;5012315;28;20052;-67
2021/07/26 04:31:24;;;;;;;12.77;6.20;;;;;;;18.66;100.00;99944.44;5016827;28;20048;-66
2021/07/26 04:34:08;;;;;;;10.75;6.60;;;;;;;18.65;100.00;99948.13;5021351;28;20052;-67
2021/07/26 04:36:52;;;;;;;9.50;6.57;;;;;;;18.66;100.00;99941.72;5021327;28;20080;-67
2021/07/26 04:39:36;;;;;;;7.57;6.38;;;;;;;18.63;100.00;99948.34;5020953;28;20517;-67
2021/07/26 04:42:19;;;;;;;6.78;5.95;;;;;;;18.62;100.00;99954.78;5021254;28;20048;-67
2021/07/26 04:45:05;;;;;;;8.00;6.20;;;;;;;18.65;100.00;99953.53;5021179;28;20124;-67
2021/07/26 04:47:49;;;;;;;9.32;6.10;;;;;;;18.65;100.00;99948.97;5020928;28;20048;-66
2021/07/26 04:50:33;;;;;;;7.43;6.55;;;;;;;18.64;100.00;99949.16;5021065;28;20084;-67
2021/07/26 04:53:17;;;;;;;8.38;6.97;;;;;;;18.65;100.00;99953.53;5021053;28;20053;-67
2021/07/26 04:56:01;;;;;;;9.68;5.93;;;;;;;18.65;100.00;99948.13;5020832;28;20095;-66
2021/07/26 04:58:45;;;;;;;7.97;6.35;;;;;;;18.65;100.00;99950.81;5020922;28;20057;-67
2021/07/26 05:01:29;;;;;;;8.32;6.65;;;;;;;18.66;100.00;99953.34;5034786;28;20083;-67
2021/07/26 05:04:13;;;;;;;9.13;6.32;;;;;;;18.60;100.00;99959.56;5020579;28;20048;-66
2021/07/26 05:07:03;;;;;;;10.10;6.18;;;;;;;18.64;100.00;99958.13;5020795;28;20140;-67
2021/07/26 05:09:47;;;;;;;8.57;6.93;;;;;;;18.63;100.00;99961.00;5020690;28;20056;-67
2021/07/26 05:12:31;;;;;;;8.43;6.32;;;;;;;18.61;100.00;99966.63;5020978;28;20064;-66
2021/07/26 05:15:15;;;;;;;11.15;6.45;;;;;;;18.62;100.00;99964.75;5034311;28;20542;-67
2021/07/26 05:17:59;;;;;;;10.27;6.68;;;;;;;18.67;100.00;99970.38;5035795;28;20080;-68
2021/07/26 05:20:42;;;;;;;10.43;6.45;;;;;;;18.70;100.00;99972.66;5019984;28;20473;-68
2021/07/26 05:23:26;;;;;;;9.98;6.55;;;;;;;18.69;100.00;99976.41;5020304;28;20129;-68
2021/07/26 05:26:10;;;;;;;7.85;6.60;;;;;;;18.76;100.00;99980.78;5020509;28;20099;-68
2021/07/26 05:28:54;;;;;;;8.30;6.00;;;;;;;18.81;100.00;99981.03;5020459;28;20059;-68
2021/07/26 05:31:38;;;;;;;8.70;6.95;;;;;;;18.75;100.00;99986.38;5020087;28;20138;-68
2021/07/26 05:34:23;;;;;;;8.35;6.40;;;;;;;18.78;100.00;99977.91;5020268;28;20491;-67
2021/07/26 05:37:07;;;;;;;8.18;6.55;;;;;;;18.77;100.00;99979.75;5020048;28;20048;-67
2021/07/26 05:39:51;;;;;;;14.43;7.07;;;;;;;18.73;100.00;99980.34;5019951;28;20056;-68
2021/07/26 05:42:35;;;;;;;7.47;6.13;;;;;;;18.78;100.00;99978.72;5019622;28;20147;-66
2021/07/26 05:45:19;;;;;;;9.60;6.57;;;;;;;18.83;100.00;99983.50;5019983;28;20052;-68
2021/07/26 05:48:04;;;;;;;8.32;6.57;;;;;;;18.88;100.00;99976.44;5020215;28;20099;-67
2021/07/26 05:50:48;;;;;;;8.27;6.95;;;;;;;18.94;100.00;99980.19;5033932;28;20188;-68
2021/07/26 05:53:32;;;;;;;9.80;7.05;;;;;;;19.05;100.00;99979.59;5020028;28;20088;-66
2021/07/26 05:56:15;;;;;;;8.07;6.25;;;;;;;19.18;100.00;99985.09;5019873;28;20041;-65
2021/07/26 05:59:01;;;;;;;8.27;6.32;;;;;;;19.31;100.00;99977.78;5033660;28;20048;-67
2021/07/26 06:01:48;;;;;;;8.73;5.93;;;;;;;19.46;100.00;99977.59;5020313;28;20056;-66
2021/07/26 06:04:32;;;;;;;8.80;5.68;;;;;;;19.58;100.00;99973.25;5020397;28;20048;-66
2021/07/26 06:07:17;;;;;;;7.93;5.82;;;;;;;19.66;100.00;99981.13;5019907;28;20048;-68
2021/07/26 06:10:01;;;;;;;7.00;5.72;;;;;;;19.75;100.00;99991.53;5019376;28;20076;-68
2021/07/26 06:12:45;;;;;;;7.18;6.03;;;;;;;19.88;100.00;99991.50;5019612;28;20140;-67
2021/07/26 06:15:29;;;;;;;8.15;5.70;;;;;;;19.95;100.00;99999.63;5019382;28;20048;-68
2021/07/26 06:18:13;;;;;;;7.20;5.57;;;;;;;20.07;100.00;99992.53;5019264;28;20188;-68
2021/07/26 06:20:57;;;;;;;8.13;5.28;;;;;;;20.22;100.00;99983.13;5019099;28;20052;-67
2021/07/26 06:23:41;;;;;;;6.50;5.53;;;;;;;20.36;100.00;99982.06;5019441;28;20405;-67
2021/07/26 06:26:25;;;;;;;9.23;6.13;;;;;;;20.46;100.00;99987.88;5019362;28;20045;-68
2021/07/26 06:29:09;;;;;;;7.35;5.25;;;;;;;20.57;100.00;99991.75;5019186;28;20136;-67
2021/07/26 06:31:57;;;;;;;7.85;5.63;;;;;;;20.67;100.00;99981.31;5019277;28;20052;-67
2021/07/26 06:34:41;;;;;;;7.63;5.80;;;;;;;20.79;100.00;99985.84;5019570;28;20108;-67
2021/07/26 06:37:25;;;;;;;9.32;5.88;;;;;;;20.89;100.00;99979.97;5033080;28;20106;-68
2021/07/26 06:40:09;;;;;;;11.18;5.95;;;;;;;20.93;100.00;99981.22;5019080;28;20052;-67
2021/07/26 06:42:53;;;;;;;7.75;5.32;;;;;;;20.98;100.00;99993.06;5018808;28;20054;-67
2021/07/26 06:45:37;;;;;;;9.32;5.13;;;;;;;21.09;100.00;99996.94;5019025;28;20091;-68
2021/07/26 06:48:23;;;;;;;8.65;5.20;;;;;;;21.18;100.00;99994.59;5018950;28;20132;-68
2021/07/26 06:51:08;;;;;;;8.50;5.22;;;;;;;21.27;100.00;99995.16;5019108;28;20084;-67
2021/07/26 06:53:51;;;;;;;6.05;5.30;;;;;;;21.31;100.00;99997.22;5018393;28;20044;-67
2021/07/26 06:56:35;;;;;;;7.45;5.28;;;;;;;21.40;100.00;99998.59;5018790;28;20052;-66
2021/07/26 06:59:19;;;;;;;7.47;5.43;;;;;;;21.54;100.00;100002.88;5018584;28;20139;-67
2021/07/26 07:02:06;;;;;;;6.20;4.85;;;;;;;21.63;100.00;100007.00;5018931;28;20052;-67
2021/07/26 07:04:50;;;;;;;10.68;5.30;;;;;;;21.64;100.00;100015.97;5018818;28;20119;-67
2021/07/26 07:07:34;;;;;;;6.55;5.50;;;;;;;21.58;100.00;100014.13;5018618;28;20064;-67
2021/07/26 07:10:18;;;;;;;6.82;5.22;;;;;;;21.69;100.00;100016.97;5018462;28;20088;-67
2021/07/26 07:13:02;;;;;;;10.15;5.68;;;;;;;21.80;100.00;100018.16;5018617;28;20457;-67
2021/07/26 07:15:46;;;;;;;9.18;5.20;;;;;;;21.86;97.33;100018.09;5018529;28;20052;-67
2021/07/26 07:18:30;;;;;;;8.77;5.25;;;;;;;21.94;98.25;100008.81;5032271;28;20052;-67
2021/07/26 07:21:18;;;;;;;12.27;5.43;;;;;;;22.02;95.81;100017.50;5017985;28;20084;-67
2021/07/26 07:24:03;;;;;;;10.55;4.95;;;;;;;22.03;96.41;100012.91;5018553;28;20114;-67
2021/07/26 07:26:47;;;;;;;7.32;4.88;;;;;;;22.12;95.76;100009.66;5032291;28;20088;-67
2021/07/26 07:29:31;;;;;;;6.43;4.55;;;;;;;22.28;95.15;100006.38;5018306;28;20049;-67
2021/07/26 07:32:18;;;;;;;8.25;4.80;;;;;;;22.29;92.44;100004.50;5018142;28;20064;-67
2021/07/26 07:35:03;;;;;;;8.63;5.07;;;;;;;22.42;92.01;100007.91;5018295;28;20099;-67
2021/07/26 07:37:47;;;;;;;8.10;4.65;;;;;;;22.59;89.67;100014.41;5018375;28;20068;-67
2021/07/26 07:40:31;;;;;;;;;;;;;;;22.50;84.42;100025.81;5018542;28;20148;-67
2021/07/26 07:43:15;;;;;;;7.97;5.00;;;;;;;22.73;83.80;100020.53;5018465;28;20053;-67
2021/07/26 07:45:59;;;;;;;7.40;4.88;;;;;;;22.94;82.54;100012.69;5018289;28;20060;-67
2021/07/26 07:48:43;;;;;;;4.68;4.15;;;;;;;23.21;82.82;100010.50;5018302;28;20102;-67
2021/07/26 07:51:27;;;;;;;13.15;5.22;;;;;;;23.54;82.41;100011.63;5031779;28;20056;-67
2021/07/26 07:54:14;;;;;;;;;;;;;;;23.69;78.58;100005.72;5018563;28;20095;-68
2021/07/26 07:56:59;;;;;;;6.00;4.32;;;;;;;24.03;77.47;100008.50;5018447;28;19923;-68
2021/07/26 07:59:43;;;;;;;8.75;4.25;;;;;;;24.10;75.62;100014.69;5018169;28;20413;-67
2021/07/26 08:02:27;;;;;;;7.47;4.20;;;;;;;24.01;73.63;100020.69;5018497;28;20061;-67
2021/07/26 08:05:12;;;;;;;7.95;3.60;;;;;;;23.90;72.02;100036.00;5018130;28;20107;-67
2021/07/26 08:07:56;;;;;;;6.20;4.60;;;;;;;23.74;72.25;100036.63;5034992;28;20091;-66
2021/07/26 08:10:39;;;;;;;5.55;3.90;;;;;;;23.94;71.58;100029.00;5022051;28;20138;-66
2021/07/26 08:13:25;;;;;;;7.38;4.55;;;;;;;24.19;71.78;100035.06;5021744;28;20059;-67
2021/07/26 08:16:09;;;;;;;5.63;4.10;;;;;;;24.57;68.92;100035.38;5021711;28;20422;-67
2021/07/26 08:18:53;;;;;;;7.68;4.20;;;;;;;24.46;69.39;100041.66;5021966;28;20055;-66
2021/07/26 08:21:38;;;;;;;;;;;;;;;24.54;70.84;100038.59;5022232;28;20068;-67
2021/07/26 08:24:22;;;;;;;7.05;4.60;;;;;;;24.43;69.76;100042.97;5021477;28;19927;-66
2021/07/26 08:27:06;;;;;;;9.95;4.40;;;;;;;24.49;69.34;100042.00;5021600;28;20048;-67
2021/07/26 08:29:50;;;;;;;6.80;4.50;;;;;;;24.68;69.60;100039.97;5021550;28;20500;-67
2021/07/26 08:32:34;;;;;;;5.45;4.00;;;;;;;25.07;68.71;100036.41;5021378;28;20083;-67
2021/07/26 08:35:19;;;;;;;;;;;;;;;25.30;67.17;100039.09;5021814;28;20137;-66
2021/07/26 08:38:04;;;;;;;5.20;3.83;;;;;;;25.51;64.29;100038.41;5021539;28;19966;-67
2021/07/26 08:40:48;;;;;;;6.85;4.50;;;;;;;25.19;64.57;100039.94;5021394;28;20043;-67
2021/07/26 08:43:32;;;;;;;;;;;;;;;24.99;65.99;100047.72;5021420;28;20135;-66
2021/07/26 08:46:18;;;;;;;4.47;3.77;;;;;;;25.09;66.16;100042.47;5021220;28;19982;-67
2021/07/26 08:49:02;;;;;;;9.45;4.72;;;;;;;25.08;66.03;100043.53;5020896;28;20306;-66
2021/07/26 08:51:47;;;;;;;6.05;4.47;;;;;;;25.58;64.68;100041.78;5021112;28;20068;-66
2021/07/26 08:54:31;;;;;;;7.30;4.57;;;;;;;25.98;62.93;100037.03;5021233;28;20052;-66
2021/07/26 08:57:15;;;;;;;5.75;4.25;;;;;;;26.28;60.79;100042.97;5020708;28;20053;-66
2021/07/26 09:00:00;;;;;;;5.00;3.90;;;;;;;26.39;58.93;100045.59;5006786;28;20076;-67
2021/07/26 09:02:44;;;;;;;4.80;3.78;;;;;;;26.44;60.75;100042.13;5020944;28;20414;-67
2021/07/26 09:05:28;;;;;;;;;;;;;;;26.53;59.03;100044.19;5021363;28;20052;-67
2021/07/26 09:08:15;;;;;;;5.35;3.72;;;;;;;26.67;59.25;100036.44;5020798;28;20305;-67
2021/07/26 09:11:01;;;;;;;6.28;4.47;;;;;;;26.86;58.92;100040.53;5020516;28;20094;-67
2021/07/26 09:13:46;;;;;;;7.28;4.50;;;;;;;27.08;58.68;100034.78;5020766;28;20098;-67
2021/07/26 09:16:30;;;;;;;4.55;3.95;;;;;;;26.98;56.94;100040.13;5020353;28;20096;-67
2021/07/26 09:19:14;;;;;;;6.10;4.40;;;;;;;27.23;56.18;100026.75;5020346;28;20052;-67
2021/07/26 09:21:59;;;;;;;;;;;;;;;27.58;56.19;100031.75;5034894;28;20144;-66
2021/07/26 09:24:43;;;;;;;6.05;4.25;;;;;;;27.42;57.01;100033.53;5020842;28;19919;-67
2021/07/26 09:27:27;;;;;;;8.10;4.65;;;;;;;27.20;57.49;100042.88;5020471;28;20521;-67
2021/07/26 09:30:15;;;;;;;6.18;4.45;;;;;;;27.07;60.58;100043.22;5019978;28;20079;-67
2021/07/26 09:33:04;;;;;;;5.78;4.30;;;;;;;27.33;57.50;100032.34;5034195;28;20095;-67
2021/07/26 09:36:04;;;;;;;7.25;4.00;;;;;;;27.38;56.37;100035.13;5020306;28;20096;-67
2021/07/26 09:38:48;;;;;;;5.30;4.15;;;;;;;27.62;55.21;100036.47;5034199;28;20052;-66
2021/07/26 09:41:40;;;;;;;8.80;4.00;;;;;;;27.98;52.42;100026.66;5033751;28;20052;-67
2021/07/26 09:44:26;;;;;;;5.18;4.10;;;;;;;28.25;52.09;100030.16;5034353;28;20552;-66
2021/07/26 09:47:18;;;;;;;5.85;4.00;;;;;;;28.49;50.27;100036.91;5019883;28;20087;-66
2021/07/26 09:50:05;;;;;;;8.13;4.53;;;;;;;28.46;51.57;100030.03;5020006;28;20139;-67
2021/07/26 09:52:49;;;;;;;5.45;4.38;;;;;;;29.03;48.89;100033.63;5020341;28;20052;-66
2021/07/26 09:55:33;;;;;;;;;;;;;;;29.48;48.21;100030.97;5020210;28;20048;-65
2021/07/26 09:58:18;;;;;;;;;;;;;;;29.83;47.00;100028.31;5020360;28;19963;-67
2021/07/26 10:01:04;;;;;;;5.22;4.30;;;;;;;30.34;46.86;100018.94;5019542;28;19920;-67
2021/07/26 10:03:51;;;;;;;8.30;4.20;;;;;;;30.32;46.01;100027.47;5019787;28;20048;-67
2021/07/26 10:06:35;;;;;;;10.35;4.15;;;;;;;30.07;45.73;100020.38;5019679;28;20080;-66
2021/07/26 10:09:19;;;;;;;4.55;3.95;;;;;;;30.02;47.61;100021.97;5033281;28;20099;-67
2021/07/26 10:12:04;;;;;;;5.53;4.35;;;;;;;29.68;48.81;100020.03;5019279;28;20084;-67
2021/07/26 10:14:49;;;;;;;4.65;3.95;;;;;;;29.71;47.82;100025.00;5019217;28;20159;-67
2021/07/26 10:17:34;;;;;;;9.70;5.07;;;;;;;30.07;47.15;100015.66;5019343;28;20048;-67
2021/07/26 10:20:20;;;;;;;4.68;4.03;;;;;;;30.92;44.52;100009.94;5019076;28;20057;-67
2021/07/26 10:23:06;;;;;;;5.72;4.00;;;;;;;31.32;42.81;100012.50;5019058;28;20044;-68
2021/07/26 10:25:59;;;;;;;6.30;4.22;;;;;;;31.53;42.42;100011.25;5019145;28;20090;-67
2021/07/26 10:28:56;;;;;;;5.18;4.05;;;;;;;32.54;40.99;100003.75;5019029;28;20114;-68
2021/07/26 10:31:41;;;;;;;5.63;3.90;;;;;;;32.84;39.88;100003.41;5033434;28;20415;-67
2021/07/26 10:34:33;;;;;;;4.55;4.10;;;;;;;33.70;38.14;99999.97;5019085;28;20100;-67
2021/07/26 10:37:40;;;;;;;3.55;3.25;;;;;;;34.84;36.34;100004.53;5019072;28;20525;-67
2021/07/26 10:40:27;;;;;;;4.70;3.95;;;;;;;35.54;34.56;100002.13;5032893;28;20064;-67
2021/07/26 10:43:13;;;;;;;7.05;3.95;;;;;;;34.86;33.98;100004.22;5019013;28;20059;-66
2021/07/26 10:45:58;;;;;;;5.25;4.25;;;;;;;34.72;33.88;100009.78;5019206;28;20414;-68
2021/07/26 10:48:49;;;;;;;4.32;3.47;;;;;;;32.89;35.94;100004.16;5018683;28;20122;-67
2021/07/26 10:51:38;;;;;;;3.95;3.53;;;;;;;32.98;36.90;100012.63;5019025;28;20051;-67
2021/07/26 10:54:32;;;;;;;5.30;3.45;;;;;;;32.75;37.01;100013.47;5033621;28;20395;-67
2021/07/26 10:57:38;;;;;;;4.22;3.55;;;;;;;33.98;35.75;100007.22;5033764;28;20079;-67
2021/07/26 11:00:24;;;;;;;5.20;3.60;;;;;;;34.53;35.39;100008.19;5033558;28;20063;-67
2021/07/26 11:03:40;;;;;;;5.25;3.55;;;;;;;34.00;35.45;99998.66;5018878;28;20084;-67
2021/07/26 11:06:34;;;;;;;4.35;3.80;;;;;;;33.41;36.75;99995.72;5018714;28;20095;-67
2021/07/26 11:09:21;;;;;;;4.43;3.63;;;;;;;32.85;38.23;99999.53;5032781;28;20418;-67
2021/07/26 11:12:06;;;;;;;4.53;3.85;;;;;;;33.39;38.46;99993.28;5032502;28;20056;-67
2021/07/26 11:15:13;;;;;;;6.07;4.15;;;;;;;33.76;35.76;99993.25;5018452;28;20052;-66
2021/07/26 11:18:19;;;;;;;10.90;4.07;;;;;;;33.39;35.83;99993.28;5018609;28;20056;-66
2021/07/26 11:21:16;;;;;;;5.97;4.18;;;;;;;33.33;35.98;99994.47;5018389;28;20073;-67
2021/07/26 11:24:01;;;;;;;6.28;4.43;;;;;;;32.30;37.57;99994.66;5018624;28;20513;-67
2021/07/26 11:26:48;;;;;;;6.03;4.53;;;;;;;31.48;38.39;100003.03;5018488;28;20048;-67
2021/07/26 11:29:32;;;;;;;6.65;4.05;;;;;;;31.37;40.03;99991.25;5018097;28;20083;-67
2021/07/26 11:32:20;;;;;;;4.43;3.88;;;;;;;33.10;37.02;99980.69;5018153;28;20052;-67
2021/07/26 11:35:04;;;;;;;6.10;4.30;;;;;;;34.79;34.94;99988.00;5032326;28;20092;-67
2021/07/26 11:37:48;;;;;;;5.22;4.47;;;;;;;32.65;36.67;100010.78;5018359;28;20095;-67
2021/07/26 11:40:33;;;;;;;7.93;4.65;;;;;;;31.67;39.00;99990.22;5018321;28;20049;-67
2021/07/26 11:43:32;;;;;;;5.55;4.22;;;;;;;31.66;39.01;99986.63;5021836;28;20102;-67
2021/07/26 11:46:16;;;;;;;4.85;3.80;;;;;;;30.19;40.89;100021.69;5022266;28;20064;-67
2021/07/26 11:49:00;;;;;;;9.68;3.97;;;;;;;29.16;44.10;99997.41;5022315;28;20525;-67
2021/07/26 11:51:44;;;;;;;5.13;4.10;;;;;;;28.56;46.70;99994.44;5022245;28;20091;-67
2021/07/26 11:54:28;;;;;;;4.85;4.10;;;;;;;28.23;47.03;99988.47;5022257;28;20053;-67
2021/07/26 11:57:16;;;;;;;4.90;4.20;;;;;;;28.28;47.85;99986.59;5022046;28;20114;-66
2021/07/26 12:00:05;;;;;;;4.30;3.83;;;;;;;28.64;46.86;99991.19;5022580;28;20111;-66
2021/07/26 12:02:49;;;;;;;5.05;3.28;;;;;;;28.31;46.32;99986.06;5022703;28;20075;-66
2021/07/26 12:05:35;;;;;;;4.80;3.08;;;;;;;27.41;49.20;99990.00;5022049;28;20076;-66
2021/07/26 12:08:19;;;;;;;4.65;3.55;;;;;;;27.27;49.97;100019.69;5021913;28;20099;-66
2021/07/26 12:11:17;;;;;;;7.18;3.65;;;;;;;26.30;49.69;100035.34;5035805;28;20056;-66
2021/07/26 12:14:23;;;;;;;4.35;3.50;;;;;;;25.80;52.31;100012.66;5021898;28;20107;-66
2021/07/26 12:17:24;;;;;;;4.57;3.42;;;;;;;25.53;53.71;100009.75;5021808;28;20589;-66
2021/07/26 12:20:08;;;;;;;6.50;3.85;;;;;;;25.65;53.75;100015.97;5021191;28;20060;-66
2021/07/26 12:22:53;;;;;;;4.93;3.70;;;;;;;25.87;53.47;100013.38;5021376;28;20052;-66
2021/07/26 12:25:43;;;;;;;;;;;;;;;25.83;53.82;100001.28;5022238;28;20079;-66
2021/07/26 12:28:42;;;;;;;6.65;3.47;;;;;;;25.95;53.99;100004.75;5035637;28;19962;-66
2021/07/26 12:31:30;;;;;;;7.00;3.83;;;;;;;25.99;54.36;99994.97;5021124;28;20620;-66
2021/07/26 12:34:21;;;;;;;4.88;3.55;;;;;;;26.14;54.63;99992.50;5021209;28;20095;-66
2021/07/26 12:37:07;;;;;;;4.80;3.60;;;;;;;26.32;54.73;99983.97;5035513;28;20049;-67
2021/07/26 12:39:51;;;;;;;6.40;3.83;;;;;;;26.39;55.36;99981.91;5021013;28;20056;-67
2021/07/26 12:42:35;;;;;;;3.75;3.10;;;;;;;26.65;55.25;99983.94;5021309;28;20202;-67
2021/07/26 12:45:23;;;;;;;;;;;;;;;26.75;55.53;99979.41;5021673;28;20178;-67
2021/07/26 12:48:14;;;;;;;5.75;3.30;;;;;;;27.03;54.07;99976.44;5021051;28;20007;-67
2021/07/26 12:50:59;;;;;;;5.50;3.65;;;;;;;27.19;53.61;99970.88;5021025;28;20099;-66
2021/07/26 12:53:52;;;;;;;5.43;3.42;;;;;;;27.48;53.86;99972.25;5020599;28;20520;-67
2021/07/26 12:56:36;;;;;;;5.18;3.40;;;;;;;27.64;51.79;99974.03;5035681;28;20414;-67
2021/07/26 12:59:20;;;;;;;4.88;3.40;;;;;;;28.09;49.15;99977.16;5020901;28;20426;-67
2021/07/26 13:02:04;;;;;;;;;;;;;;;28.61;48.19;99975.25;5021364;28;20457;-66